createdAt,value
2023-06-30T00:04:43.692Z,21.12
2023-06-30T00:09:46.190Z,21.11
2023-06-30T00:14:47.878Z,21.07
2023-06-30T00:19:52.028Z,21.07
2023-06-30T00:24:57.295Z,21.24
2023-06-30T00:29:59.768Z,21.31
2023-06-30T00:35:02.295Z,21.34
2023-06-30T00:40:04.454Z,21.36
2023-06-30T00:45:07.605Z,21.28
2023-06-30T00:50:09.854Z,21.14
2023-06-30T00:55:13.495Z,20.65
2023-06-30T01:00:16.542Z,20.42
2023-06-30T01:05:26.255Z,20.25
2023-06-30T01:10:30.479Z,20.06
2023-06-30T01:15:33.554Z,19.93
2023-06-30T01:20:41.132Z,19.84
2023-06-30T01:25:44.158Z,19.64
2023-06-30T01:30:47.317Z,19.53
2023-06-30T01:35:49.326Z,19.70
2023-06-30T01:40:51.541Z,19.82
2023-06-30T01:45:55.736Z,19.94
2023-06-30T01:50:58.817Z,20.06
2023-06-30T01:56:00.799Z,19.87
2023-06-30T02:01:03.375Z,19.88
2023-06-30T02:06:05.325Z,20.09
2023-06-30T02:11:07.109Z,20.16
2023-06-30T02:16:09.102Z,19.83
2023-06-30T02:21:10.844Z,19.55
2023-06-30T02:26:12.613Z,19.39
2023-06-30T02:31:14.435Z,19.37
2023-06-30T02:36:16.155Z,19.40
2023-06-30T02:41:18.078Z,19.58
2023-06-30T02:46:20.017Z,19.57
2023-06-30T02:51:21.966Z,19.42
2023-06-30T02:56:23.781Z,19.42
2023-06-30T03:01:26.188Z,19.49
2023-06-30T03:06:28.140Z,19.43
2023-06-30T03:11:30.062Z,19.31
2023-06-30T03:16:33.415Z,19.28
2023-06-30T03:21:35.938Z,19.33
2023-06-30T03:26:37.867Z,19.39
2023-06-30T03:31:50.030Z,19.30
2023-06-30T03:36:52.320Z,19.26
2023-06-30T03:41:56.063Z,19.22
2023-06-30T03:46:58.119Z,19.39
2023-06-30T03:52:00.333Z,19.57
2023-06-30T03:57:02.091Z,19.64
2023-06-30T04:02:04.788Z,19.76
2023-06-30T04:07:06.849Z,19.61
2023-06-30T04:12:09.640Z,19.54
2023-06-30T04:17:11.291Z,19.67
2023-06-30T04:22:13.079Z,19.63
2023-06-30T04:27:14.797Z,19.55
2023-06-30T04:32:16.537Z,19.56
2023-06-30T04:37:18.458Z,19.65
2023-06-30T04:42:20.183Z,19.71
2023-06-30T04:47:22.211Z,19.65
2023-06-30T04:52:24.001Z,19.62
2023-06-30T04:57:27.512Z,19.61
2023-06-30T05:02:29.293Z,19.60
2023-06-30T05:07:31.071Z,19.81
2023-06-30T05:12:32.692Z,19.90
2023-06-30T05:17:34.628Z,19.93
2023-06-30T05:22:36.717Z,20.03
2023-06-30T05:27:38.473Z,20.30
2023-06-30T05:32:40.649Z,20.45
2023-06-30T05:37:42.419Z,20.49
2023-06-30T05:42:44.129Z,20.47
2023-06-30T05:47:47.022Z,20.46
2023-06-30T05:52:49.418Z,20.48
2023-06-30T05:57:51.990Z,20.48
2023-06-30T06:02:55.046Z,20.52
2023-06-30T06:07:56.965Z,20.57
2023-06-30T06:12:58.814Z,20.64
2023-06-30T06:18:01.272Z,20.66
2023-06-30T06:23:03.042Z,20.73
2023-06-30T06:28:05.134Z,20.81
2023-06-30T06:33:07.215Z,20.83
2023-06-30T06:38:09.482Z,20.96
2023-06-30T06:43:11.468Z,21.10
2023-06-30T06:48:19.472Z,21.24
2023-06-30T06:53:26.480Z,21.40
2023-06-30T06:58:32.908Z,21.50
2023-06-30T07:03:35.344Z,21.56
2023-06-30T07:08:37.810Z,21.62
2023-06-30T07:13:39.607Z,21.70
2023-06-30T07:18:41.406Z,21.85
2023-06-30T07:23:43.173Z,21.96
2023-06-30T07:28:44.933Z,22.11
2023-06-30T07:33:46.630Z,22.20
2023-06-30T07:38:49.626Z,22.33
2023-06-30T07:43:51.576Z,22.38
2023-06-30T07:48:53.286Z,22.41
2023-06-30T07:53:55.117Z,22.45
2023-06-30T07:58:56.729Z,22.48
2023-06-30T08:03:58.471Z,22.59
2023-06-30T08:09:00.444Z,22.68
2023-06-30T08:14:03.322Z,22.67
2023-06-30T08:19:05.143Z,22.68
2023-06-30T08:24:07.164Z,22.73
2023-06-30T08:29:08.878Z,22.79
2023-06-30T08:34:11.628Z,22.81
2023-06-30T08:39:14.431Z,22.81
2023-06-30T08:44:18.746Z,22.80
2023-06-30T08:49:21.619Z,22.94
2023-06-30T08:54:26.663Z,23.03
2023-06-30T08:59:28.502Z,23.24
2023-06-30T09:04:30.453Z,23.33
2023-06-30T09:09:35.862Z,23.45
2023-06-30T09:14:40.365Z,23.46
2023-06-30T09:19:42.151Z,23.41
2023-06-30T09:24:43.837Z,23.47
2023-06-30T09:29:53.642Z,23.60
2023-06-30T09:34:55.503Z,23.62
2023-06-30T09:39:57.153Z,23.67
2023-06-30T09:44:58.906Z,23.74
2023-06-30T09:50:00.648Z,23.87
2023-06-30T09:55:11.819Z,23.96
2023-06-30T10:00:26.046Z,24.08
2023-06-30T10:05:39.391Z,24.27
2023-06-30T10:10:42.967Z,24.33
2023-06-30T10:15:45.307Z,24.34
2023-06-30T10:20:50.007Z,24.26
2023-06-30T10:25:52.802Z,24.14
2023-06-30T10:30:54.555Z,23.80
2023-06-30T10:35:57.400Z,23.65
2023-06-30T10:41:16.002Z,23.46
2023-06-30T10:46:17.953Z,23.16
2023-06-30T10:51:19.607Z,22.66
2023-06-30T10:56:22.954Z,22.41
2023-06-30T11:01:27.616Z,22.08
2023-06-30T11:06:31.258Z,22.02
2023-06-30T11:11:49.488Z,22.06
2023-06-30T11:17:07.977Z,22.07
2023-06-30T11:22:23.212Z,22.20
2023-06-30T11:27:28.868Z,22.21
2023-06-30T11:32:31.099Z,22.38
2023-06-30T11:37:37.366Z,22.50
2023-06-30T11:42:42.076Z,22.57
2023-06-30T11:47:48.014Z,22.69
2023-06-30T11:52:50.566Z,22.66
2023-06-30T11:57:52.308Z,22.79
2023-06-30T12:02:54.004Z,22.85
2023-06-30T12:07:57.530Z,22.96
2023-06-30T12:12:59.746Z,22.98
2023-06-30T12:18:05.587Z,22.97
2023-06-30T12:23:07.962Z,23.01
2023-06-30T12:28:13.439Z,23.05
2023-06-30T12:33:20.202Z,23.08
2023-06-30T12:38:21.897Z,23.23
2023-06-30T12:43:25.102Z,23.49
2023-06-30T12:48:27.106Z,23.74
2023-06-30T12:53:28.846Z,23.95
2023-06-30T12:58:30.591Z,24.03
2023-06-30T13:03:35.873Z,24.18
2023-06-30T13:08:37.930Z,24.42
2023-06-30T13:13:39.599Z,24.46
2023-06-30T13:18:41.337Z,24.57
2023-06-30T13:23:43.040Z,24.76
2023-06-30T13:28:44.838Z,25.03
2023-06-30T13:33:46.493Z,25.32
2023-06-30T13:38:48.257Z,25.46
2023-06-30T13:43:50.351Z,25.53
2023-06-30T13:48:52.263Z,25.11
2023-06-30T13:53:53.990Z,24.76
2023-06-30T13:58:55.633Z,24.72
2023-06-30T14:03:57.559Z,24.63
2023-06-30T14:08:59.241Z,23.93
2023-06-30T14:14:04.771Z,23.38
2023-06-30T14:19:07.703Z,23.02
2023-06-30T14:24:09.654Z,22.72
2023-06-30T14:29:11.438Z,22.42
2023-06-30T14:34:14.328Z,22.24
2023-06-30T14:39:16.590Z,22.13
2023-06-30T14:44:22.429Z,22.02
2023-06-30T14:49:25.783Z,22.06
2023-06-30T14:54:27.412Z,22.14
2023-06-30T14:59:29.180Z,22.35
2023-06-30T15:04:30.838Z,22.46
2023-06-30T15:09:32.617Z,22.55
2023-06-30T15:14:34.320Z,22.63
2023-06-30T15:19:36.087Z,22.51
2023-06-30T15:24:37.837Z,22.46
2023-06-30T15:29:39.515Z,22.50
2023-06-30T15:34:41.303Z,22.61
2023-06-30T15:39:43.075Z,22.60
2023-06-30T15:44:44.740Z,22.72
2023-06-30T15:49:47.147Z,22.88
2023-06-30T15:55:05.365Z,22.88
2023-06-30T16:00:08.511Z,22.89
2023-06-30T16:05:17.138Z,22.92
2023-06-30T16:10:19.009Z,23.02
2023-06-30T16:15:20.934Z,23.13
2023-06-30T16:20:24.762Z,23.15
2023-06-30T16:25:26.552Z,23.31
2023-06-30T16:30:31.373Z,23.47
2023-06-30T16:35:34.337Z,23.47
2023-06-30T16:40:36.042Z,23.58
2023-06-30T16:45:37.907Z,23.67
2023-06-30T16:50:40.075Z,23.73
2023-06-30T16:55:41.867Z,23.71
2023-06-30T17:00:43.519Z,23.85
2023-06-30T17:05:45.606Z,23.87
2023-06-30T17:10:47.669Z,23.88
2023-06-30T17:15:49.851Z,23.80
2023-06-30T17:20:51.616Z,23.83
2023-06-30T17:25:53.254Z,23.85
2023-06-30T17:30:56.268Z,23.84
2023-06-30T17:35:58.155Z,23.87
2023-06-30T17:41:00.187Z,23.92
2023-06-30T17:46:02.866Z,23.90
2023-06-30T17:51:04.798Z,23.81
2023-06-30T17:56:06.567Z,23.62
2023-06-30T18:01:09.801Z,23.50
2023-06-30T18:06:11.595Z,22.80
2023-06-30T18:11:13.238Z,22.27
2023-06-30T18:16:14.904Z,21.63
2023-06-30T18:21:16.759Z,21.34
2023-06-30T18:26:18.558Z,21.18
2023-06-30T18:31:20.296Z,21.15
2023-06-30T18:36:22.366Z,20.92
2023-06-30T18:42:27.328Z,20.85
2023-06-30T18:47:29.053Z,20.86
2023-06-30T18:52:34.277Z,20.87
2023-06-30T18:57:39.282Z,21.07
2023-06-30T19:02:41.267Z,21.16
2023-06-30T19:07:53.142Z,21.11
2023-06-30T19:12:56.177Z,21.09
2023-06-30T19:17:58.738Z,21.14
2023-06-30T19:23:01.123Z,21.19
2023-06-30T19:28:11.265Z,21.15
2023-06-30T19:33:12.924Z,21.21
2023-06-30T19:38:22.719Z,21.17
2023-06-30T19:43:33.761Z,21.16
2023-06-30T19:48:36.632Z,21.04
2023-06-30T19:53:38.392Z,21.10
2023-06-30T19:58:41.887Z,21.17
2023-06-30T20:03:44.130Z,21.20
2023-06-30T20:08:47.155Z,21.21
2023-06-30T20:13:52.167Z,21.21
2023-06-30T20:18:54.815Z,21.12
2023-06-30T20:24:01.870Z,21.00
2023-06-30T20:29:04.436Z,21.04
2023-06-30T20:34:10.053Z,21.09
2023-06-30T20:39:11.969Z,21.05
2023-06-30T20:44:18.049Z,21.08
2023-06-30T20:49:22.884Z,21.04
2023-06-30T20:54:25.283Z,20.87
2023-06-30T20:59:34.890Z,20.76
2023-06-30T21:04:38.894Z,20.68
2023-06-30T21:09:40.938Z,20.66
2023-06-30T21:14:43.007Z,20.67
2023-06-30T21:19:46.865Z,20.63
2023-06-30T21:24:48.988Z,20.55
2023-06-30T21:29:54.831Z,20.64
2023-06-30T21:34:56.564Z,20.66
2023-06-30T21:39:58.616Z,20.60
2023-06-30T21:45:00.362Z,20.61
2023-06-30T21:50:02.365Z,20.71
2023-06-30T21:55:04.270Z,20.77
2023-06-30T22:00:08.178Z,20.84
2023-06-30T22:05:09.762Z,20.86
2023-06-30T22:10:11.701Z,20.89
2023-06-30T22:15:13.612Z,20.89
2023-06-30T22:20:15.392Z,20.88
2023-06-30T22:25:18.778Z,20.84
2023-06-30T22:30:20.581Z,20.78
2023-06-30T22:35:22.718Z,20.74
2023-06-30T22:40:25.078Z,20.71
2023-06-30T22:45:26.744Z,20.65
2023-06-30T22:50:29.637Z,20.66
2023-06-30T22:55:31.996Z,20.58
2023-06-30T23:00:33.849Z,20.59
2023-06-30T23:05:35.518Z,20.59
2023-06-30T23:10:37.928Z,20.60
2023-06-30T23:15:39.647Z,20.56
2023-06-30T23:20:41.295Z,20.48
2023-06-30T23:25:43.014Z,20.35
2023-06-30T23:30:44.631Z,20.22
2023-06-30T23:35:46.871Z,20.22
2023-06-30T23:40:48.755Z,20.24
2023-06-30T23:45:50.667Z,20.22
2023-06-30T23:50:52.320Z,20.15
2023-06-30T23:55:54.029Z,20.12
